Time;durP1;ratioP1;P1;durP2;ratioP2;P2;SDS_P1;SDS_P2;PMS_P1;PMS_P2;Temp;Humidity;BMP_temperature;BMP_pressure;BME280_temperature;BME280_humidity;BME280_pressure;Samples;Min_cycle;Max_cycle;Signal;HPM_P1;HPM_P2
2021/05/31 00:02:33;;;;;;;;;;;;;;;;;;;;;
2021/05/31 00:06:13;;;;;;;;;;;;;;;;;;;;;
2021/05/31 00:09:49;;;;;;;5.58;4.20;;;;;;;9.88;61.38;99755.19;128001;1108;62166;-86
2021/05/31 00:17:18;;;;;;;7.83;5.20;;;;;;;9.77;61.54;99745.13;127097;1111;62143;-85
2021/05/31 00:25:15;;;;;;;;;;;;;;;;;;;;;
2021/05/31 00:37:56;;;;;;;;;;;;;;;;;;;;;
2021/05/31 00:41:32;;;;;;;;;;;;;;;;;;;;;
2021/05/31 00:49:23;;;;;;;;;;;;;;;;;;;;;
2021/05/31 00:56:53;;;;;;;7.10;5.90;;;;;;;9.46;62.15;99736.21;126396;1120;62112;-87
2021/05/31 00:59:59;;;;;;;;;;;;;;;;;;;;;
2021/05/31 01:03:01;;;;;;;6.40;5.20;;;;;;;9.29;62.33;99735.44;126395;1120;62032;-87
2021/05/31 01:05:39;;;;;;;9.90;5.65;;;;;;;9.19;62.23;99732.44;126406;1120;61904;-86
2021/05/31 01:08:55;;;;;;;;;;;;;;;;;;;;;
2021/05/31 01:11:55;;;;;;;6.17;4.80;;;;;;;9.03;62.61;99727.08;127083;1114;62191;-86
2021/05/31 01:15:07;;;;;;;5.80;5.20;;;;;;;8.98;62.31;99731.83;127109;1111;61987;-86
2021/05/31 01:18:23;;;;;;;6.80;6.13;;;;;;;8.85;62.44;99731.64;127624;1108;62057;-87
2021/05/31 01:21:49;;;;;;;11.17;6.33;;;;;;;8.69;62.93;99728.06;128184;1105;61844;-87
2021/05/31 01:25:11;;;;;;;10.63;7.23;;;;;;;8.47;62.94;99730.17;128464;1104;65070;-87
2021/05/31 01:28:41;;;;;;;12.73;7.07;;;;;;;8.27;62.53;99731.15;128427;1104;62062;-87
2021/05/31 01:32:13;;;;;;;9.10;8.20;;;;;;;8.13;63.20;99723.88;128492;1101;61908;-86
2021/05/31 01:35:14;;;;;;;11.03;8.10;;;;;;;8.02;63.12;99721.80;128846;1100;61785;-86
2021/05/31 01:38:15;;;;;;;8.10;7.10;;;;;;;7.95;63.26;99727.48;128845;1101;61829;-86
2021/05/31 01:40:58;;;;;;;10.60;6.43;;;;;;;7.85;63.32;99725.30;128805;1101;63240;-87
2021/05/31 01:44:03;;;;;;;9.00;5.67;;;;;;;7.83;63.12;99731.64;128824;1101;61877;-87
2021/05/31 01:47:02;;;;;;;6.40;5.53;;;;;;;7.80;63.79;99724.66;128788;1101;61980;-87
2021/05/31 01:49:44;;;;;;;5.33;4.83;;;;;;;7.85;63.52;99725.30;128835;1101;62050;-86
2021/05/31 01:52:48;;;;;;;5.60;5.00;;;;;;;7.89;63.98;99720.70;128811;1101;61991;-86
2021/05/31 01:55:24;;;;;;;6.37;5.23;;;;;;;7.92;63.55;99715.21;128850;1101;63013;-86
2021/05/31 01:58:10;;;;;;;7.87;6.20;;;;;;;7.95;63.40;99723.05;128794;1101;62014;-86
2021/05/31 02:01:05;;;;;;;7.87;6.60;;;;;;;7.94;63.57;99718.64;128855;1101;61901;-86
2021/05/31 02:03:53;;;;;;;9.33;6.53;;;;;;;7.89;63.38;99725.13;128819;1101;61886;-86
2021/05/31 02:06:34;;;;;;;7.53;6.77;;;;;;;7.80;63.55;99721.14;128834;1101;61879;-86
2021/05/31 02:09:17;;;;;;;7.50;6.30;;;;;;;7.70;63.52;99725.19;128832;1101;61907;-86
2021/05/31 02:12:29;;;;;;;14.63;7.93;;;;;;;7.58;63.44;99716.91;128809;1101;62065;-86
2021/05/31 02:15:11;;;;;;;11.00;7.70;;;;;;;7.41;63.50;99727.48;128837;1101;61990;-86
2021/05/31 02:17:54;;;;;;;9.27;7.10;;;;;;;7.24;63.87;99720.31;128809;1101;61888;-86
2021/05/31 02:20:41;;;;;;;8.80;6.70;;;;;;;7.19;63.63;99727.67;128826;1101;61834;-86
2021/05/31 02:28:25;;;;;;;;;;;;;;;;;;;;;
2021/05/31 02:30:59;;;;;;;6.97;5.70;;;;;;;7.27;64.41;99704.25;128807;1093;62045;-87
2021/05/31 02:33:28;;;;;;;8.23;6.50;;;;;;;7.31;64.38;99703.14;128854;1100;62094;-86
2021/05/31 02:36:02;;;;;;;10.50;8.00;;;;;;;7.34;64.32;99703.95;128839;1101;61779;-86
2021/05/31 02:38:38;;;;;;;9.07;7.27;;;;;;;7.34;63.91;99703.95;128817;1101;61931;-86
2021/05/31 02:41:15;;;;;;;9.77;8.07;;;;;;;7.35;64.08;99703.02;128791;1101;62016;-86
2021/05/31 02:43:47;;;;;;;10.20;8.40;;;;;;;7.29;63.92;99698.86;128887;1101;61791;-86
2021/05/31 02:46:24;;;;;;;12.43;8.70;;;;;;;7.14;64.32;99700.46;128799;1101;61987;-86
2021/05/31 02:49:14;;;;;;;13.97;9.17;;;;;;;7.01;64.42;99704.64;128797;1101;61817;-87
2021/05/31 02:52:02;;;;;;;10.87;8.87;;;;;;;6.86;64.40;99700.88;128848;1100;63194;-86
2021/05/31 02:54:45;;;;;;;8.83;7.93;;;;;;;6.82;64.38;99714.39;128820;1101;62060;-85
2021/05/31 02:57:27;;;;;;;12.43;7.20;;;;;;;6.82;64.78;99701.98;128826;1101;61792;-86
2021/05/31 03:00:09;;;;;;;10.23;6.73;;;;;;;6.87;65.04;99699.09;128796;1101;61819;-86
2021/05/31 03:02:56;;;;;;;7.93;6.80;;;;;;;6.92;64.91;99697.08;128809;1101;61830;-86
2021/05/31 03:05:48;;;;;;;11.77;6.90;;;;;;;7.01;64.75;99697.53;128834;1101;62322;-87
2021/05/31 03:08:28;;;;;;;9.07;6.70;;;;;;;7.12;64.58;99697.00;128800;1101;62011;-87
2021/05/31 03:11:09;;;;;;;10.07;6.80;;;;;;;7.16;64.52;99693.27;128850;1101;61884;-87
2021/05/31 03:13:47;;;;;;;11.03;7.93;;;;;;;7.16;64.88;99695.92;128811;1101;61807;-87
2021/05/31 03:16:29;;;;;;;11.97;8.13;;;;;;;7.19;65.09;99695.80;128856;1101;61795;-87
2021/05/31 03:19:11;;;;;;;11.73;8.97;;;;;;;7.26;65.25;99697.22;128798;1101;63209;-86
2021/05/31 03:21:59;;;;;;;12.57;8.17;;;;;;;7.24;64.86;99701.72;128824;1100;62006;-87
2021/05/31 03:24:32;;;;;;;14.13;9.43;;;;;;;7.22;64.94;99703.60;128844;1101;61880;-87
2021/05/31 03:27:10;;;;;;;11.33;9.73;;;;;;;7.22;65.00;99708.91;128803;1101;62020;-87
2021/05/31 03:29:39;;;;;;;11.67;9.63;;;;;;;7.25;65.57;99713.20;128847;1101;61793;-86
2021/05/31 03:32:14;;;;;;;13.73;9.50;;;;;;;7.28;64.72;99708.63;128813;1101;63307;-86
2021/05/31 03:34:48;;;;;;;11.77;9.17;;;;;;;7.35;64.79;99711.84;128818;1101;62006;-87
2021/05/31 03:37:24;;;;;;;12.93;8.47;;;;;;;7.50;64.95;99708.42;128809;1101;62120;-86
2021/05/31 03:40:05;;;;;;;13.23;8.40;;;;;;;7.74;64.96;99711.67;128811;1101;62320;-87
2021/05/31 03:42:47;;;;;;;13.77;8.47;;;;;;;8.05;64.67;99710.13;128824;1101;61986;-88
2021/05/31 03:45:47;;;;;;;12.40;9.80;;;;;;;8.27;64.37;99705.43;128840;1101;62564;-87
2021/05/31 03:48:21;;;;;;;12.77;10.30;;;;;;;8.55;64.32;99703.99;128804;1101;62026;-87
2021/05/31 03:54:20;;;;;;;15.70;10.10;;;;;;;8.97;63.88;99703.48;128816;1101;61859;-86
2021/05/31 03:57:01;;;;;;;10.53;8.50;;;;;;;9.18;64.07;99706.74;128824;1101;61823;-87
2021/05/31 03:59:50;;;;;;;11.93;9.00;;;;;;;9.40;64.07;99704.56;128819;1101;62763;-86
2021/05/31 04:02:24;;;;;;;11.60;8.43;;;;;;;9.67;63.66;99703.92;128829;1100;61851;-86
2021/05/31 04:04:54;;;;;;;9.07;6.80;;;;;;;9.91;64.00;99701.64;128825;1101;62025;-87
2021/05/31 04:13:17;;;;;;;;;;;;;;;10.84;63.60;99690.63;128872;1101;62069;-87
2021/05/31 04:16:00;;;;;;;10.17;7.00;;;;;;;11.09;63.58;99693.47;128836;1101;62122;-87
2021/05/31 04:18:35;;;;;;;9.73;7.37;;;;;;;11.31;63.49;99698.27;128845;1101;61968;-87
2021/05/31 04:21:06;;;;;;;7.10;6.40;;;;;;;11.46;63.54;99692.91;128838;1101;62032;-87
2021/05/31 04:23:36;;;;;;;9.37;7.47;;;;;;;11.60;63.78;99693.70;128832;1101;61846;-87
2021/05/31 04:26:09;;;;;;;8.57;7.00;;;;;;;11.73;63.44;99683.05;128819;1101;62960;-88
2021/05/31 04:28:37;;;;;;;8.33;7.33;;;;;;;11.85;63.28;99689.43;128808;1101;62031;-87
2021/05/31 04:31:09;;;;;;;6.77;6.03;;;;;;;11.94;63.34;99686.12;128850;1101;61837;-88
2021/05/31 04:34:20;;;;;;;;;;;;;;;;;;;;;
2021/05/31 04:41:33;;;;;;;7.45;6.18;;;;;;;12.52;63.18;99678.56;128540;1101;63607;-87
2021/05/31 04:44:28;;;;;;;7.33;6.60;;;;;;;12.55;63.14;99684.58;128453;1104;62193;-87
2021/05/31 04:47:07;;;;;;;9.20;6.97;;;;;;;12.68;62.62;99685.43;128511;1104;61941;-87
2021/05/31 04:49:52;;;;;;;10.23;5.73;;;;;;;12.78;63.01;99685.61;128446;1104;62018;-85
2021/05/31 04:52:36;;;;;;;9.80;5.80;;;;;;;12.91;62.91;99685.59;128468;1104;62097;-85
2021/05/31 04:55:31;;;;;;;6.40;5.70;;;;;;;13.03;62.63;99684.72;128434;1102;61995;-86
2021/05/31 04:58:13;;;;;;;6.80;5.60;;;;;;;13.06;62.10;99680.98;128435;1102;62138;-85
2021/05/31 05:01:01;;;;;;;7.90;5.93;;;;;;;13.00;62.14;99682.27;128510;1104;62155;-85
2021/05/31 05:04:10;;;;;;;13.60;6.33;;;;;;;13.07;62.18;99674.64;128501;1104;61937;-85
2021/05/31 05:07:17;;;;;;;8.23;6.63;;;;;;;13.19;62.31;99674.61;128413;1102;61861;-85
2021/05/31 05:10:01;;;;;;;9.13;6.40;;;;;;;13.36;62.54;99670.73;128461;1103;63211;-85
2021/05/31 05:12:49;;;;;;;10.13;7.07;;;;;;;13.54;62.42;99676.53;128421;1104;62030;-85
2021/05/31 05:15:52;;;;;;;7.23;6.40;;;;;;;13.61;61.82;99668.88;128796;1101;62330;-85
2021/05/31 05:18:26;;;;;;;8.55;6.75;;;;;;;13.66;61.93;99662.20;128850;1101;61824;-84
2021/05/31 05:20:58;;;;;;;8.07;6.23;;;;;;;13.56;62.11;99671.08;128833;1101;61841;-84
2021/05/31 05:23:25;;;;;;;7.93;6.70;;;;;;;13.30;62.36;99673.86;128808;1101;61988;-84
2021/05/31 05:25:54;;;;;;;7.63;6.87;;;;;;;13.12;62.43;99673.34;128819;1101;61847;-83
2021/05/31 05:28:27;;;;;;;8.90;6.63;;;;;;;13.21;62.29;99678.05;128797;1101;61979;-84
2021/05/31 05:30:53;;;;;;;7.77;6.97;;;;;;;13.43;62.30;99673.81;128840;1101;61932;-83
2021/05/31 05:33:21;;;;;;;7.37;6.40;;;;;;;13.55;62.50;99672.02;128825;1101;62053;-83
2021/05/31 05:35:57;;;;;;;8.90;6.10;;;;;;;13.46;62.15;99670.89;128888;1101;63049;-83
2021/05/31 05:41:42;;;;;;;7.83;7.00;;;;;;;13.48;62.66;99671.63;128716;1101;61915;-82
2021/05/31 05:49:55;;;;;;;7.87;6.80;;;;;;;14.28;62.17;99669.13;128833;1101;62012;-82
2021/05/31 05:52:27;;;;;;;10.05;6.70;;;;;;;14.50;61.86;99669.17;128825;1101;61954;-83
2021/05/31 05:54:59;;;;;;;8.43;6.28;;;;;;;14.63;61.93;99670.89;128822;1101;61872;-83
2021/05/31 05:57:26;;;;;;;7.43;6.63;;;;;;;14.75;62.04;99670.78;128830;1100;62046;-82
2021/05/31 06:00:01;;;;;;;7.87;6.03;;;;;;;14.94;61.92;99672.00;128835;1101;61900;-83
2021/05/31 06:02:30;;;;;;;6.90;6.20;;;;;;;15.02;61.43;99670.42;128838;1101;63021;-84
2021/05/31 06:05:02;;;;;;;8.77;6.37;;;;;;;15.01;61.91;99674.06;128813;1101;62375;-81
2021/05/31 06:07:34;;;;;;;11.33;6.17;;;;;;;15.13;61.86;99677.60;128821;1101;62081;-83
2021/05/31 06:10:05;;;;;;;6.77;6.07;;;;;;;15.26;62.08;99674.77;128813;1101;61988;-82
2021/05/31 06:12:55;;;;;;;9.10;6.63;;;;;;;15.46;62.17;99678.52;128806;1101;61850;-82
2021/05/31 06:15:36;;;;;;;7.10;6.40;;;;;;;15.56;61.67;99672.26;128857;1101;62441;-82
2021/05/31 06:18:13;;;;;;;9.10;6.10;;;;;;;15.45;61.71;99671.42;128776;1101;62019;-83
2021/05/31 06:20:43;;;;;;;9.25;6.63;;;;;;;15.70;61.94;99675.67;128809;1101;62747;-83
2021/05/31 06:23:12;;;;;;;9.23;6.77;;;;;;;15.80;61.23;99666.70;128803;1101;61878;-82
2021/05/31 06:25:39;;;;;;;9.83;6.00;;;;;;;15.82;61.24;99666.56;128806;1101;61964;-83
2021/05/31 06:28:09;;;;;;;8.43;6.60;;;;;;;16.03;61.53;99661.19;128799;1101;62922;-82
2021/05/31 06:30:44;;;;;;;8.27;6.57;;;;;;;16.18;61.35;99670.68;128782;1101;61944;-83
2021/05/31 06:33:11;;;;;;;6.95;6.35;;;;;;;16.31;60.73;99665.95;128814;1101;61908;-82
2021/05/31 06:35:49;;;;;;;6.77;6.07;;;;;;;16.32;61.01;99666.80;128777;1101;61878;-83
2021/05/31 06:38:32;;;;;;;14.95;7.25;;;;;;;16.41;61.07;99672.27;128799;1101;61932;-82
2021/05/31 06:41:07;;;;;;;8.77;6.23;;;;;;;16.55;60.95;99672.91;128812;1101;62097;-83
2021/05/31 06:43:34;;;;;;;6.67;5.97;;;;;;;16.47;60.50;99660.06;128790;1101;62191;-83
2021/05/31 06:46:08;;;;;;;12.47;7.03;;;;;;;16.41;60.54;99671.38;128849;1101;61859;-82
2021/05/31 06:48:40;;;;;;;8.03;5.87;;;;;;;16.32;60.34;99670.34;128840;1101;61960;-83
2021/05/31 06:51:08;;;;;;;9.20;7.70;;;;;;;16.17;60.61;99661.75;128823;1101;61952;-82
2021/05/31 06:53:38;;;;;;;9.80;7.70;;;;;;;16.22;61.33;99658.63;128803;1101;62006;-82
2021/05/31 06:56:10;;;;;;;12.30;7.47;;;;;;;16.20;60.48;99663.31;128793;1101;61857;-81
2021/05/31 06:58:38;;;;;;;9.70;7.67;;;;;;;16.23;60.75;99652.28;128824;1100;61929;-82
2021/05/31 07:01:15;;;;;;;14.30;7.33;;;;;;;16.28;60.83;99657.26;128796;1101;61985;-82
2021/05/31 07:03:45;;;;;;;13.20;7.07;;;;;;;16.45;60.71;99662.91;128815;1101;62061;-84
2021/05/31 07:06:15;;;;;;;12.80;6.73;;;;;;;16.37;60.53;99660.03;128802;1101;63016;-83
2021/05/31 07:08:54;;;;;;;11.43;7.20;;;;;;;16.36;60.36;99657.47;128781;1101;62165;-82
2021/05/31 07:11:23;;;;;;;12.10;7.10;;;;;;;16.50;60.81;99657.12;128813;1101;61903;-82
2021/05/31 07:13:55;;;;;;;10.63;6.90;;;;;;;16.54;60.43;99663.97;128799;1101;61980;-83
2021/05/31 07:16:22;;;;;;;21.20;8.97;;;;;;;16.57;60.38;99660.98;128547;1101;61869;-81
2021/05/31 07:18:52;;;;;;;9.00;6.80;;;;;;;16.65;60.53;99654.91;128825;1101;62626;-84
2021/05/31 07:21:24;;;;;;;7.67;6.13;;;;;;;16.68;60.41;99669.00;128778;1101;61926;-82
2021/05/31 07:23:51;;;;;;;9.40;6.63;;;;;;;16.74;60.20;99664.95;128822;1101;61910;-81
2021/05/31 07:26:20;;;;;;;18.43;6.60;;;;;;;16.77;59.84;99664.66;128830;1101;62035;-82
2021/05/31 07:28:56;;;;;;;11.60;6.37;;;;;;;16.84;60.04;99663.13;128820;1101;61943;-81
2021/05/31 07:31:25;;;;;;;7.83;5.47;;;;;;;16.87;59.83;99660.17;128778;1101;62109;-83
2021/05/31 07:33:55;;;;;;;6.10;5.50;;;;;;;16.93;59.74;99672.27;128795;1101;61992;-83
2021/05/31 07:36:25;;;;;;;11.00;6.33;;;;;;;16.95;60.10;99664.88;128799;1101;62196;-81
2021/05/31 07:38:56;;;;;;;11.30;6.90;;;;;;;17.10;59.68;99673.44;128813;1101;62165;-82
2021/05/31 07:41:28;;;;;;;16.20;7.73;;;;;;;17.19;59.91;99667.24;128819;1101;62014;-82
2021/05/31 07:43:58;;;;;;;14.53;6.63;;;;;;;17.29;59.59;99668.10;128802;1101;63526;-82
2021/05/31 07:46:24;;;;;;;14.97;8.20;;;;;;;17.38;59.53;99669.98;128768;1101;62122;-82
2021/05/31 07:48:52;;;;;;;10.30;7.03;;;;;;;17.39;58.73;99668.14;128830;1101;61837;-83
2021/05/31 07:51:19;;;;;;;15.07;7.97;;;;;;;17.36;59.15;99668.40;128860;1101;61985;-81
2021/05/31 07:53:51;;;;;;;11.03;8.20;;;;;;;17.39;59.39;99670.84;128814;1101;62060;-81
2021/05/31 07:56:26;;;;;;;16.50;9.27;;;;;;;17.49;59.49;99668.98;128788;1101;63080;-81
2021/05/31 07:58:53;;;;;;;;;;;;;;;17.54;59.14;99670.28;128843;1101;61945;-82
2021/05/31 08:01:20;;;;;;;14.70;7.47;;;;;;;17.51;59.40;99667.88;128821;1101;61842;-82
2021/05/31 08:03:48;;;;;;;11.30;6.80;;;;;;;17.68;59.04;99662.76;128838;1101;62015;-83
2021/05/31 08:06:28;;;;;;;17.13;8.53;;;;;;;17.62;58.78;99658.77;128845;1101;62096;-82
2021/05/31 08:08:54;;;;;;;9.73;7.27;;;;;;;17.55;58.63;99663.03;128845;1101;62725;-83
2021/05/31 08:11:52;;;;;;;11.07;8.80;;;;;;;17.59;59.21;99669.02;128793;1101;62209;-84
2021/05/31 08:14:32;;;;;;;12.10;8.97;;;;;;;17.61;58.78;99656.22;128862;1101;61973;-84
2021/05/31 08:17:30;;;;;;;;;;;;;;;;;;;;;
2021/05/31 08:20:15;;;;;;;9.53;8.07;;;;;;;17.76;58.80;99663.81;128863;1101;61990;-83
2021/05/31 08:22:45;;;;;;;13.63;6.57;;;;;;;17.87;58.72;99649.29;128809;1101;62923;-82
2021/05/31 08:25:27;;;;;;;28.20;7.30;;;;;;;18.00;58.46;99657.95;128795;1101;61976;-82
2021/05/31 08:28:03;;;;;;;11.60;6.95;;;;;;;18.10;58.57;99664.22;128823;1101;62029;-83
2021/05/31 08:30:41;;;;;;;9.03;6.13;;;;;;;18.20;58.14;99664.23;128834;1101;61966;-82
2021/05/31 08:33:18;;;;;;;9.40;4.87;;;;;;;18.19;57.48;99661.64;128821;1101;62218;-83
2021/05/31 08:36:22;;;;;;;7.63;4.97;;;;;;;18.13;57.25;99663.06;128818;1101;63090;-88
2021/05/31 08:39:53;;;;;;;6.50;4.03;;;;;;;18.06;57.34;99657.39;128442;1104;62168;-82
2021/05/31 08:42:32;;;;;;;17.55;5.25;;;;;;;18.05;56.83;99657.53;128445;1104;62064;-82
2021/05/31 08:45:10;;;;;;;8.10;3.70;;;;;;;18.27;57.29;99656.39;128437;1104;61859;-83
2021/05/31 08:51:11;;;;;;;5.43;2.90;;;;;;;18.45;55.86;99648.36;128496;1104;62712;-83
2021/05/31 08:54:02;;;;;;;4.50;2.90;;;;;;;18.43;56.13;99653.92;128457;1104;62247;-83
2021/05/31 08:56:45;;;;;;;5.97;2.90;;;;;;;18.47;56.07;99652.64;128113;1106;61996;-84
2021/05/31 08:59:26;;;;;;;10.90;3.77;;;;;;;18.64;56.09;99651.88;128455;1104;61884;-81
2021/05/31 09:01:58;;;;;;;17.07;4.23;;;;;;;18.79;56.00;99648.72;128441;1104;62125;-82
2021/05/31 09:04:50;;;;;;;4.40;2.90;;;;;;;18.94;55.65;99640.95;128449;1104;63471;-86
2021/05/31 09:07:24;;;;;;;4.60;3.00;;;;;;;18.93;55.25;99645.52;128425;1104;62025;-86
2021/05/31 09:10:10;;;;;;;8.47;3.07;;;;;;;18.89;55.58;99642.28;128463;1104;62032;-84
2021/05/31 09:12:46;;;;;;;9.83;2.70;;;;;;;18.80;55.07;99637.74;128449;1105;61986;-86
2021/05/31 09:15:14;;;;;;;7.33;2.80;;;;;;;18.76;55.34;99640.88;128505;1101;62107;-81
2021/05/31 09:17:55;;;;;;;25.80;5.37;;;;;;;18.77;55.47;99648.88;128751;1101;63042;-82
2021/05/31 09:20:28;;;;;;;4.23;3.00;;;;;;;18.83;54.79;99642.88;128768;1101;62106;-81
2021/05/31 09:23:17;;;;;;;8.97;3.07;;;;;;;18.81;55.33;99647.56;128802;1101;62076;-81
2021/05/31 09:25:51;;;;;;;6.97;2.83;;;;;;;18.89;55.08;99635.98;128731;1101;61966;-83
2021/05/31 09:28:37;;;;;;;11.05;3.40;;;;;;;19.05;54.43;99633.50;128809;1101;61998;-81
2021/05/31 09:31:24;;;;;;;7.50;3.95;;;;;;;19.18;55.06;99623.16;128801;1101;63374;-83
2021/05/31 09:34:10;;;;;;;11.87;3.50;;;;;;;19.34;55.02;99627.04;128838;1101;62201;-83
2021/05/31 09:37:44;;;;;;;6.13;2.90;;;;;;;19.52;55.13;99630.63;128806;1101;61960;-83
2021/05/31 09:40:26;;;;;;;2.60;2.13;;;;;;;19.56;54.58;99632.03;128838;1101;61870;-83
2021/05/31 09:43:13;;;;;;;;;;;;;;;;;;;;;
2021/05/31 09:45:50;;;;;;;6.77;3.60;;;;;;;19.66;54.38;99616.59;128799;1101;62542;-82
2021/05/31 09:48:20;;;;;;;6.23;3.13;;;;;;;19.75;53.91;99622.09;128773;1101;61951;-82
2021/05/31 09:51:01;;;;;;;10.83;3.30;;;;;;;19.68;53.96;99614.58;128799;1101;61873;-89
2021/05/31 09:53:40;;;;;;;4.13;2.57;;;;;;;19.67;53.91;99622.87;128816;1101;62038;-86
2021/05/31 09:56:28;;;;;;;11.40;3.80;;;;;;;19.65;54.35;99614.87;128844;1101;61960;-82
2021/05/31 09:59:04;;;;;;;12.30;2.80;;;;;;;19.83;53.85;99617.58;128830;1101;63215;-81
2021/05/31 10:01:42;;;;;;;7.27;2.60;;;;;;;19.94;53.07;99617.34;128766;1102;61978;-90
2021/05/31 10:04:47;;;;;;;4.83;2.33;;;;;;;19.91;53.58;99614.08;128804;1101;61767;-82
2021/05/31 10:08:17;;;;;;;4.23;2.47;;;;;;;19.82;52.73;99623.16;128815;1101;62129;-83
2021/05/31 10:10:53;;;;;;;9.40;2.70;;;;;;;19.59;52.50;99612.78;128819;1101;62011;-81
2021/05/31 10:13:28;;;;;;;9.20;2.57;;;;;;;19.26;53.32;99618.84;128799;1101;62191;-82
2021/05/31 10:15:57;;;;;;;9.80;2.80;;;;;;;19.39;52.97;99613.90;128795;1101;61997;-81
2021/05/31 10:18:29;;;;;;;10.43;2.60;;;;;;;19.42;52.45;99610.91;128800;1101;61977;-81
2021/05/31 10:21:00;;;;;;;5.77;2.13;;;;;;;19.56;52.79;99601.38;128797;1101;62867;-81
2021/05/31 10:23:32;;;;;;;5.17;2.20;;;;;;;19.73;52.58;99599.72;128823;1101;61953;-82
2021/05/31 10:26:10;;;;;;;25.73;5.37;;;;;;;19.81;52.82;99592.50;128829;1101;63086;-81
2021/05/31 10:28:42;;;;;;;3.70;2.30;;;;;;;19.96;52.42;99593.63;128815;1101;62124;-82
2021/05/31 10:31:11;;;;;;;4.50;2.27;;;;;;;20.05;51.45;99594.56;128815;1101;62067;-83
2021/05/31 10:33:39;;;;;;;44.70;12.60;;;;;;;19.99;52.24;99589.77;128777;1101;61811;-83
2021/05/31 10:36:25;;;;;;;11.97;2.50;;;;;;;20.09;51.98;99595.93;128823;1101;62652;-83
2021/05/31 10:38:59;;;;;;;;;;;;;;;20.04;51.47;99591.98;128827;1101;62705;-82
2021/05/31 10:41:30;;;;;;;3.83;2.10;;;;;;;20.09;50.91;99600.50;128797;1101;61966;-80
2021/05/31 10:43:59;;;;;;;5.67;2.47;;;;;;;20.06;51.06;99600.84;128815;1101;61870;-82
2021/05/31 10:46:44;;;;;;;9.30;2.43;;;;;;;20.14;51.16;99587.33;128824;1101;61919;-83
2021/05/31 10:49:21;;;;;;;17.00;4.90;;;;;;;20.30;51.45;99592.88;128824;1101;61875;-79
2021/05/31 10:51:47;;;;;;;4.50;2.50;;;;;;;20.22;51.24;99590.94;128795;1101;62984;-80
2021/05/31 10:54:16;;;;;;;4.90;2.10;;;;;;;20.33;51.36;99594.41;128823;1101;61985;-78
2021/05/31 10:56:48;;;;;;;3.20;2.10;;;;;;;20.23;50.07;99584.53;128814;1101;61832;-81
2021/05/31 10:59:23;;;;;;;4.33;2.30;;;;;;;20.08;50.32;99574.41;128848;1101;61846;-81
2021/05/31 11:01:55;;;;;;;4.20;2.10;;;;;;;20.11;50.19;99588.52;128825;1101;62016;-82
2021/05/31 11:04:25;;;;;;;7.03;2.17;;;;;;;20.16;49.72;99579.88;128783;1101;63294;-85
2021/05/31 11:06:59;;;;;;;4.03;2.40;;;;;;;20.10;50.38;99581.36;128810;1101;61917;-83
2021/05/31 11:09:51;;;;;;;2.77;1.53;;;;;;;20.15;49.90;99578.17;128836;1101;62058;-82
2021/05/31 11:12:32;;;;;;;3.77;1.97;;;;;;;20.18;49.94;99570.59;128762;1101;61999;-83
2021/05/31 11:15:19;;;;;;;3.13;2.03;;;;;;;20.09;49.80;99574.23;128777;1101;61984;-82
2021/05/31 11:18:32;;;;;;;3.23;1.90;;;;;;;20.24;49.36;99571.81;128800;1101;63024;-83
2021/05/31 11:21:02;;;;;;;11.17;2.97;;;;;;;20.22;49.80;99566.53;128792;1101;62024;-82
2021/05/31 11:23:42;;;;;;;15.17;2.67;;;;;;;20.28;48.50;99572.33;128881;1101;62041;-85
2021/05/31 11:26:19;;;;;;;10.77;2.60;;;;;;;20.12;49.02;99571.23;128822;1101;62039;-84
2021/05/31 11:28:57;;;;;;;8.43;2.50;;;;;;;20.00;48.51;99568.94;128808;1101;61973;-82
2021/05/31 11:31:25;;;;;;;7.20;1.98;;;;;;;19.99;48.59;99562.66;128820;1101;63193;-81
2021/05/31 11:33:54;;;;;;;12.23;2.77;;;;;;;20.08;48.49;99567.12;128793;1101;62080;-82
2021/05/31 11:36:35;;;;;;;11.07;2.40;;;;;;;20.06;48.52;99568.30;128819;1101;61864;-82
2021/05/31 11:39:13;;;;;;;4.37;2.00;;;;;;;20.07;48.38;99565.42;128814;1101;61942;-81
2021/05/31 11:41:54;;;;;;;4.03;1.67;;;;;;;20.17;47.98;99566.19;128779;1101;61896;-82
2021/05/31 11:44:23;;;;;;;5.33;1.60;;;;;;;20.17;48.21;99559.91;128808;1101;61991;-82
2021/05/31 11:46:59;;;;;;;4.47;1.67;;;;;;;20.34;48.29;99558.98;128790;1101;62150;-82
2021/05/31 11:49:40;;;;;;;5.13;1.53;;;;;;;20.32;47.21;99558.30;128803;1101;62073;-80
2021/05/31 11:52:10;;;;;;;7.17;1.57;;;;;;;20.27;46.73;99554.36;128788;1101;62021;-77
2021/05/31 11:54:43;;;;;;;5.23;1.70;;;;;;;20.18;47.37;99557.03;128814;1101;61975;-80
2021/05/31 11:57:19;;;;;;;6.07;1.87;;;;;;;20.32;47.05;99552.88;128794;1101;62773;-80
2021/05/31 11:59:51;;;;;;;12.43;2.30;;;;;;;20.37;47.62;99547.82;128814;1101;61866;-80
2021/05/31 12:02:20;;;;;;;6.57;2.10;;;;;;;20.55;47.14;99555.04;128842;1101;62135;-80
2021/05/31 12:04:51;;;;;;;4.67;2.07;;;;;;;20.56;46.97;99541.34;128838;1101;61869;-80
2021/05/31 12:07:24;;;;;;;6.10;1.70;;;;;;;20.47;45.80;99550.44;128804;1101;62029;-80
2021/05/31 12:09:52;;;;;;;1.83;1.30;;;;;;;20.35;46.42;99547.11;128786;1101;63034;-81
2021/05/31 12:12:22;;;;;;;4.37;1.40;;;;;;;20.38;45.81;99546.80;128789;1101;62005;-81
2021/05/31 12:14:54;;;;;;;5.93;1.50;;;;;;;20.40;45.70;99552.91;128812;1101;62153;-82
2021/05/31 12:17:29;;;;;;;5.23;1.33;;;;;;;20.34;45.98;99542.70;128756;1101;62094;-81
2021/05/31 12:19:57;;;;;;;1.53;1.40;;;;;;;20.35;45.81;99535.41;128798;1101;61956;-82
2021/05/31 12:22:29;;;;;;;15.17;4.67;;;;;;;20.38;46.25;99537.81;128791;1101;62958;-81
2021/05/31 12:24:59;;;;;;;4.77;2.20;;;;;;;20.45;45.89;99538.91;128774;1101;62137;-81
2021/05/31 12:27:29;;;;;;;6.63;2.07;;;;;;;20.36;45.06;99532.56;128840;1101;62061;-81
2021/05/31 12:29:56;;;;;;;4.27;2.00;;;;;;;20.19;45.21;99536.19;128818;1101;61897;-80
2021/05/31 12:32:26;;;;;;;2.25;1.60;;;;;;;20.16;45.58;99534.63;128827;1101;61937;-80
2021/05/31 12:34:57;;;;;;;4.73;1.77;;;;;;;20.22;45.95;99536.70;128773;1101;61983;-81
2021/05/31 12:37:30;;;;;;;7.23;3.60;;;;;;;20.35;46.13;99527.27;128809;1101;62094;-80
2021/05/31 12:39:59;;;;;;;7.03;3.00;;;;;;;20.40;46.10;99528.50;128789;1101;62075;-79
2021/05/31 12:42:29;;;;;;;2.57;1.67;;;;;;;20.33;44.99;99526.59;128787;1101;61994;-82
2021/05/31 12:45:07;;;;;;;3.53;1.57;;;;;;;20.31;45.87;99526.77;128806;1101;61939;-81
2021/05/31 12:47:56;;;;;;;2.67;1.73;;;;;;;20.33;44.48;99522.02;128812;1101;63098;-79
2021/05/31 12:50:24;;;;;;;4.83;1.87;;;;;;;20.13;45.34;99528.69;128782;1101;61954;-80
2021/05/31 12:52:51;;;;;;;6.27;1.83;;;;;;;20.16;45.55;99521.06;128789;1101;61930;-81
2021/05/31 12:55:30;;;;;;;4.87;1.83;;;;;;;20.18;45.85;99513.64;128789;1101;61905;-81
2021/05/31 12:57:57;;;;;;;5.53;1.90;;;;;;;20.37;45.48;99515.27;128785;1101;62048;-81
2021/05/31 13:00:28;;;;;;;6.13;2.30;;;;;;;20.55;45.85;99514.34;128786;1101;63020;-80
2021/05/31 13:03:01;;;;;;;2.10;1.87;;;;;;;20.72;46.00;99506.11;128802;1101;61970;-82
2021/05/31 13:05:46;;;;;;;8.57;1.77;;;;;;;20.89;45.74;99514.31;128794;1101;62100;-81
2021/05/31 13:08:47;;;;;;;7.73;1.90;;;;;;;20.82;44.72;99495.13;128793;1101;62186;-81
2021/05/31 13:11:26;;;;;;;9.57;2.07;;;;;;;20.67;45.57;99502.19;128841;1101;62033;-81
2021/05/31 13:14:02;;;;;;;3.60;2.00;;;;;;;20.67;44.50;99497.60;128815;1101;62699;-83
2021/05/31 13:16:31;;;;;;;3.30;1.80;;;;;;;20.59;44.84;99496.73;128829;1101;61969;-81
2021/05/31 13:19:00;;;;;;;8.33;2.03;;;;;;;20.62;44.65;99499.98;128850;1101;62903;-81
2021/05/31 13:21:39;;;;;;;8.07;2.17;;;;;;;20.68;45.10;99488.47;128782;1101;62082;-81
2021/05/31 13:24:06;;;;;;;6.13;2.73;;;;;;;20.94;45.62;99498.38;128816;1101;61977;-80
2021/05/31 13:26:41;;;;;;;7.03;2.60;;;;;;;20.71;44.27;99490.84;128804;1101;62235;-81
2021/05/31 13:29:13;;;;;;;11.70;3.57;;;;;;;20.84;44.98;99490.38;128766;1101;61958;-82
2021/05/31 13:31:39;;;;;;;4.27;2.20;;;;;;;20.81;43.93;99489.88;128853;1101;61869;-81
2021/05/31 13:34:11;;;;;;;4.57;2.37;;;;;;;20.88;44.02;99485.47;128812;1101;62099;-81
2021/05/31 13:36:40;;;;;;;4.53;1.93;;;;;;;20.90;44.08;99478.00;128800;1101;62028;-82
2021/05/31 13:39:17;;;;;;;11.07;2.43;;;;;;;20.85;43.75;99496.65;128839;1101;62147;-80
2021/05/31 13:41:52;;;;;;;2.80;2.20;;;;;;;20.54;43.79;99489.08;128801;1101;61976;-81
2021/05/31 13:44:24;;;;;;;7.30;2.00;;;;;;;20.79;44.42;99485.42;128822;1101;62170;-81